sensor_id;sensor_type;location;lat;lon;timestamp;pressure;altitude;pressure_sealevel;temperature;humidity
41140;BME280;26881;48.784;9.192;2022-09-11T00:02:07;98627.16;;;16.37;85.12
41140;BME280;26881;48.784;9.192;2022-09-11T00:07:29;98622.69;;;16.38;85.29
41140;BME280;26881;48.784;9.192;2022-09-11T00:12:51;98623.16;;;16.43;84.82
41140;BME280;26881;48.784;9.192;2022-09-11T00:18:15;98619.22;;;16.37;84.73
41140;BME280;26881;48.784;9.192;2022-09-11T00:23:38;98623.53;;;16.38;84.91
41140;BME280;26881;48.784;9.192;2022-09-11T00:28:59;98617.69;;;16.35;85.75
41140;BME280;26881;48.784;9.192;2022-09-11T00:34:22;98618.63;;;16.34;85.23
41140;BME280;26881;48.784;9.192;2022-09-11T00:39:44;98611.91;;;16.41;84.40
41140;BME280;26881;48.784;9.192;2022-09-11T00:45:06;98615.00;;;16.46;84.02
41140;BME280;26881;48.784;9.192;2022-09-11T00:50:30;98608.41;;;16.40;84.55
41140;BME280;26881;48.784;9.192;2022-09-11T00:55:58;98610.94;;;16.42;84.04
41140;BME280;26881;48.784;9.192;2022-09-11T01:01:22;98607.56;;;16.40;83.50
41140;BME280;26881;48.784;9.192;2022-09-11T01:06:43;98616.47;;;16.39;83.60
41140;BME280;26881;48.784;9.192;2022-09-11T01:23:50;98606.69;;;16.51;82.85
41140;BME280;26881;48.784;9.192;2022-09-11T01:29:34;98610.16;;;16.51;83.11
41140;BME280;26881;48.784;9.192;2022-09-11T01:35:10;98618.13;;;16.40;85.65
41140;BME280;26881;48.784;9.192;2022-09-11T01:40:55;98613.34;;;16.34;86.08
41140;BME280;26881;48.784;9.192;2022-09-11T01:46:20;98612.28;;;16.36;85.51
41140;BME280;26881;48.784;9.192;2022-09-11T01:51:45;98603.38;;;16.37;85.71
41140;BME280;26881;48.784;9.192;2022-09-11T01:57:38;98619.50;;;16.34;85.77
41140;BME280;26881;48.784;9.192;2022-09-11T02:03:05;98608.78;;;16.36;84.68
41140;BME280;26881;48.784;9.192;2022-09-11T02:08:55;98614.44;;;16.31;85.60
41140;BME280;26881;48.784;9.192;2022-09-11T02:14:24;98613.72;;;16.29;85.43
41140;BME280;26881;48.784;9.192;2022-09-11T02:19:46;98626.44;;;16.35;84.41
41140;BME280;26881;48.784;9.192;2022-09-11T02:25:09;98642.06;;;16.27;85.26
41140;BME280;26881;48.784;9.192;2022-09-11T02:30:32;98630.88;;;16.35;84.51
41140;BME280;26881;48.784;9.192;2022-09-11T02:36:01;98632.09;;;16.31;84.83
41140;BME280;26881;48.784;9.192;2022-09-11T02:58:23;98652.38;;;16.30;85.03
41140;BME280;26881;48.784;9.192;2022-09-11T03:03:48;98644.66;;;16.38;84.56
41140;BME280;26881;48.784;9.192;2022-09-11T03:09:09;98648.59;;;16.44;83.88
41140;BME280;26881;48.784;9.192;2022-09-11T03:14:31;98636.84;;;16.48;84.00
41140;BME280;26881;48.784;9.192;2022-09-11T03:19:53;98640.69;;;16.44;83.95
41140;BME280;26881;48.784;9.192;2022-09-11T03:25:15;98643.06;;;16.47;83.85
41140;BME280;26881;48.784;9.192;2022-09-11T03:30:38;98644.53;;;16.40;84.47
41140;BME280;26881;48.784;9.192;2022-09-11T03:36:00;98641.88;;;16.40;84.15
41140;BME280;26881;48.784;9.192;2022-09-11T03:41:22;98642.97;;;16.37;84.75
41140;BME280;26881;48.784;9.192;2022-09-11T03:46:43;98651.72;;;16.38;84.82
41140;BME280;26881;48.784;9.192;2022-09-11T03:52:05;98642.97;;;16.37;84.77
41140;BME280;26881;48.784;9.192;2022-09-11T03:57:27;98648.72;;;16.42;84.75
41140;BME280;26881;48.784;9.192;2022-09-11T04:02:49;98647.06;;;16.41;84.58
41140;BME280;26881;48.784;9.192;2022-09-11T04:08:11;98645.97;;;16.44;84.63
41140;BME280;26881;48.784;9.192;2022-09-11T04:13:35;98648.22;;;16.49;84.15
41140;BME280;26881;48.784;9.192;2022-09-11T04:18:59;98649.78;;;16.51;84.68
41140;BME280;26881;48.784;9.192;2022-09-11T04:24:22;98661.28;;;16.50;84.34
41140;BME280;26881;48.784;9.192;2022-09-11T04:29:44;98671.72;;;16.52;84.27
41140;BME280;26881;48.784;9.192;2022-09-11T04:35:08;98657.25;;;16.46;85.72
41140;BME280;26881;48.784;9.192;2022-09-11T04:40:31;98670.66;;;16.43;85.27
41140;BME280;26881;48.784;9.192;2022-09-11T04:46:02;98678.94;;;16.50;84.69
41140;BME280;26881;48.784;9.192;2022-09-11T04:51:26;98680.28;;;16.44;84.99
41140;BME280;26881;48.784;9.192;2022-09-11T04:56:49;98697.56;;;16.48;83.95
41140;BME280;26881;48.784;9.192;2022-09-11T05:02:11;98700.41;;;16.45;84.34
41140;BME280;26881;48.784;9.192;2022-09-11T05:07:34;98716.22;;;16.56;83.76
41140;BME280;26881;48.784;9.192;2022-09-11T05:12:56;98715.78;;;16.51;84.85
41140;BME280;26881;48.784;9.192;2022-09-11T05:18:17;98719.69;;;16.57;83.76
41140;BME280;26881;48.784;9.192;2022-09-11T05:23:40;98718.97;;;16.66;83.20
41140;BME280;26881;48.784;9.192;2022-09-11T05:29:05;98724.03;;;16.58;84.04
41140;BME280;26881;48.784;9.192;2022-09-11T05:34:30;98737.84;;;16.50;85.49
41140;BME280;26881;48.784;9.192;2022-09-11T05:39:52;98738.44;;;16.54;84.89
41140;BME280;26881;48.784;9.192;2022-09-11T05:45:14;98746.63;;;16.51;84.18
41140;BME280;26881;48.784;9.192;2022-09-11T05:50:36;98750.09;;;16.51;84.82
41140;BME280;26881;48.784;9.192;2022-09-11T05:56:19;98756.09;;;16.53;84.47
41140;BME280;26881;48.784;9.192;2022-09-11T06:01:41;98760.03;;;16.59;84.49
41140;BME280;26881;48.784;9.192;2022-09-11T06:07:03;98774.56;;;16.64;83.28
41140;BME280;26881;48.784;9.192;2022-09-11T06:12:25;98780.66;;;16.65;83.45
41140;BME280;26881;48.784;9.192;2022-09-11T06:17:48;98781.75;;;16.74;83.52
41140;BME280;26881;48.784;9.192;2022-09-11T06:23:10;98791.59;;;16.72;83.42
41140;BME280;26881;48.784;9.192;2022-09-11T06:28:32;98799.00;;;16.78;83.17
41140;BME280;26881;48.784;9.192;2022-09-11T06:33:56;98797.81;;;16.71;84.08
41140;BME280;26881;48.784;9.192;2022-09-11T06:39:18;98802.16;;;16.72;83.32
41140;BME280;26881;48.784;9.192;2022-09-11T06:44:43;98812.47;;;16.75;83.18
41140;BME280;26881;48.784;9.192;2022-09-11T06:50:11;98811.38;;;16.77;83.00
41140;BME280;26881;48.784;9.192;2022-09-11T06:55:34;98819.19;;;16.90;81.66
41140;BME280;26881;48.784;9.192;2022-09-11T07:01:25;98815.09;;;16.86;82.38
41140;BME280;26881;48.784;9.192;2022-09-11T07:06:48;98808.34;;;16.93;82.20
41140;BME280;26881;48.784;9.192;2022-09-11T07:12:10;98828.41;;;16.96;81.81
41140;BME280;26881;48.784;9.192;2022-09-11T07:17:32;98813.63;;;16.93;82.25
41140;BME280;26881;48.784;9.192;2022-09-11T07:22:54;98808.72;;;16.89;82.49
41140;BME280;26881;48.784;9.192;2022-09-11T07:28:16;98818.47;;;16.88;83.06
41140;BME280;26881;48.784;9.192;2022-09-11T07:33:39;98816.53;;;16.90;82.14
41140;BME280;26881;48.784;9.192;2022-09-11T07:39:03;98822.88;;;16.88;81.95
41140;BME280;26881;48.784;9.192;2022-09-11T07:44:25;98829.03;;;16.88;82.13
41140;BME280;26881;48.784;9.192;2022-09-11T07:49:47;98832.72;;;16.97;82.26
41140;BME280;26881;48.784;9.192;2022-09-11T07:55:09;98848.91;;;17.03;81.28
41140;BME280;26881;48.784;9.192;2022-09-11T08:00:31;98846.16;;;17.05;80.83
41140;BME280;26881;48.784;9.192;2022-09-11T08:06:02;98858.88;;;17.11;81.15
41140;BME280;26881;48.784;9.192;2022-09-11T08:11:26;98857.31;;;17.09;81.43
41140;BME280;26881;48.784;9.192;2022-09-11T08:16:48;98862.81;;;17.17;80.06
41140;BME280;26881;48.784;9.192;2022-09-11T08:22:10;98861.22;;;17.25;80.59
41140;BME280;26881;48.784;9.192;2022-09-11T08:27:32;98869.50;;;17.32;80.16
41140;BME280;26881;48.784;9.192;2022-09-11T08:32:53;98867.31;;;17.37;79.80
41140;BME280;26881;48.784;9.192;2022-09-11T08:38:15;98875.19;;;17.48;78.62
41140;BME280;26881;48.784;9.192;2022-09-11T08:43:45;98872.16;;;17.53;78.53
41140;BME280;26881;48.784;9.192;2022-09-11T08:49:25;98875.13;;;17.60;77.81
41140;BME280;26881;48.784;9.192;2022-09-11T08:54:47;98886.09;;;17.55;77.59
41140;BME280;26881;48.784;9.192;2022-09-11T09:00:22;98886.97;;;17.44;78.04
41140;BME280;26881;48.784;9.192;2022-09-11T09:12:07;98887.47;;;17.38;77.28
41140;BME280;26881;48.784;9.192;2022-09-11T09:17:44;98883.84;;;17.51;76.82
41140;BME280;26881;48.784;9.192;2022-09-11T09:23:15;98884.63;;;17.62;76.15
41140;BME280;26881;48.784;9.192;2022-09-11T09:28:42;98888.50;;;17.79;76.12
41140;BME280;26881;48.784;9.192;2022-09-11T09:34:20;98891.69;;;17.94;74.71
41140;BME280;26881;48.784;9.192;2022-09-11T09:39:43;98885.75;;;18.02;71.16
41140;BME280;26881;48.784;9.192;2022-09-11T09:50:41;98891.63;;;18.05;72.10
41140;BME280;26881;48.784;9.192;2022-09-11T09:56:04;98899.28;;;18.08;71.90
41140;BME280;26881;48.784;9.192;2022-09-11T10:07:10;98894.88;;;18.09;72.43
41140;BME280;26881;48.784;9.192;2022-09-11T10:12:34;98891.69;;;18.15;72.39
41140;BME280;26881;48.784;9.192;2022-09-11T10:29:47;98893.94;;;18.20;70.20
41140;BME280;26881;48.784;9.192;2022-09-11T10:35:10;98886.56;;;18.23;71.53
41140;BME280;26881;48.784;9.192;2022-09-11T10:40:33;98876.16;;;18.31;70.88
41140;BME280;26881;48.784;9.192;2022-09-11T10:46:03;98883.00;;;18.34;70.89
41140;BME280;26881;48.784;9.192;2022-09-11T10:51:27;98885.81;;;18.42;70.55
41140;BME280;26881;48.784;9.192;2022-09-11T11:02:36;98862.81;;;18.43;70.51
41140;BME280;26881;48.784;9.192;2022-09-11T11:19:45;98868.34;;;18.61;68.14
41140;BME280;26881;48.784;9.192;2022-09-11T11:25:23;98873.22;;;18.65;68.79
41140;BME280;26881;48.784;9.192;2022-09-11T11:36:45;98858.47;;;18.72;68.20
41140;BME280;26881;48.784;9.192;2022-09-11T11:42:19;98873.19;;;18.86;67.72
41140;BME280;26881;48.784;9.192;2022-09-11T11:47:43;98875.31;;;19.02;64.22
41140;BME280;26881;48.784;9.192;2022-09-11T11:59:16;98870.03;;;19.41;60.99
41140;BME280;26881;48.784;9.192;2022-09-11T12:05:00;98858.44;;;19.62;58.60
41140;BME280;26881;48.784;9.192;2022-09-11T12:10:30;98861.09;;;19.81;58.89
41140;BME280;26881;48.784;9.192;2022-09-11T12:16:06;98861.38;;;19.78;60.03
41140;BME280;26881;48.784;9.192;2022-09-11T12:21:37;98860.41;;;19.79;58.07
41140;BME280;26881;48.784;9.192;2022-09-11T12:32:57;98858.84;;;19.76;58.54
41140;BME280;26881;48.784;9.192;2022-09-11T12:38:37;98861.22;;;19.60;60.03
41140;BME280;26881;48.784;9.192;2022-09-11T12:44:02;98864.47;;;19.54;61.32
41140;BME280;26881;48.784;9.192;2022-09-11T12:49:25;98862.22;;;19.49;61.72
41140;BME280;26881;48.784;9.192;2022-09-11T12:54:47;98861.81;;;19.44;62.32
41140;BME280;26881;48.784;9.192;2022-09-11T13:00:21;98861.66;;;19.46;63.33
41140;BME280;26881;48.784;9.192;2022-09-11T13:05:51;98856.22;;;19.47;63.14
41140;BME280;26881;48.784;9.192;2022-09-11T13:17:02;98849.91;;;19.48;62.51
41140;BME280;26881;48.784;9.192;2022-09-11T13:22:32;98841.25;;;19.46;62.82
41140;BME280;26881;48.784;9.192;2022-09-11T13:27:59;98849.91;;;19.48;62.28
41140;BME280;26881;48.784;9.192;2022-09-11T13:33:25;98845.31;;;19.50;62.76
41140;BME280;26881;48.784;9.192;2022-09-11T13:38:53;98839.88;;;19.52;63.42
41140;BME280;26881;48.784;9.192;2022-09-11T13:44:38;98839.47;;;19.47;63.21
41140;BME280;26881;48.784;9.192;2022-09-11T13:50:04;98838.78;;;19.45;63.93
41140;BME280;26881;48.784;9.192;2022-09-11T13:55:27;98835.28;;;19.44;63.67
41140;BME280;26881;48.784;9.192;2022-09-11T14:00:52;98832.63;;;19.44;63.98
41140;BME280;26881;48.784;9.192;2022-09-11T14:06:17;98830.94;;;19.43;64.14
41140;BME280;26881;48.784;9.192;2022-09-11T14:11:41;98824.22;;;19.39;64.00
41140;BME280;26881;48.784;9.192;2022-09-11T14:17:02;98821.31;;;19.42;61.92
41140;BME280;26881;48.784;9.192;2022-09-11T14:22:28;98807.47;;;19.48;61.86
41140;BME280;26881;48.784;9.192;2022-09-11T14:27:51;98797.13;;;19.65;61.83
41140;BME280;26881;48.784;9.192;2022-09-11T14:33:20;98790.00;;;19.85;60.44
41140;BME280;26881;48.784;9.192;2022-09-11T14:38:43;98788.00;;;19.96;61.07
41140;BME280;26881;48.784;9.192;2022-09-11T14:44:08;98788.25;;;20.03;60.51
41140;BME280;26881;48.784;9.192;2022-09-11T14:49:31;98786.56;;;20.12;60.07
41140;BME280;26881;48.784;9.192;2022-09-11T14:54:54;98782.59;;;20.16;59.64
41140;BME280;26881;48.784;9.192;2022-09-11T15:00:17;98773.66;;;20.17;60.53
41140;BME280;26881;48.784;9.192;2022-09-11T15:05:41;98776.91;;;20.11;58.00
41140;BME280;26881;48.784;9.192;2022-09-11T15:11:03;98769.94;;;20.10;58.66
41140;BME280;26881;48.784;9.192;2022-09-11T15:16:25;98767.78;;;20.13;60.00
41140;BME280;26881;48.784;9.192;2022-09-11T15:21:47;98764.66;;;20.00;57.55
41140;BME280;26881;48.784;9.192;2022-09-11T15:27:09;98766.47;;;19.99;58.99
41140;BME280;26881;48.784;9.192;2022-09-11T15:32:31;98761.41;;;20.06;59.11
41140;BME280;26881;48.784;9.192;2022-09-11T15:37:52;98763.47;;;20.12;59.88
41140;BME280;26881;48.784;9.192;2022-09-11T15:43:14;98755.78;;;20.19;59.87
41140;BME280;26881;48.784;9.192;2022-09-11T15:48:37;98746.50;;;20.23;59.10
41140;BME280;26881;48.784;9.192;2022-09-11T15:54:00;98748.19;;;20.24;59.30
41140;BME280;26881;48.784;9.192;2022-09-11T15:59:23;98750.97;;;20.23;58.63
41140;BME280;26881;48.784;9.192;2022-09-11T16:04:44;98749.59;;;20.18;57.42
41140;BME280;26881;48.784;9.192;2022-09-11T16:10:14;98745.72;;;20.13;57.60
41140;BME280;26881;48.784;9.192;2022-09-11T16:15:35;98740.72;;;20.10;56.32
41140;BME280;26881;48.784;9.192;2022-09-11T16:20:57;98742.81;;;20.06;56.83
41140;BME280;26881;48.784;9.192;2022-09-11T16:26:20;98739.63;;;20.03;57.28
41140;BME280;26881;48.784;9.192;2022-09-11T16:31:44;98741.59;;;20.00;56.47
41140;BME280;26881;48.784;9.192;2022-09-11T16:37:06;98743.56;;;19.98;57.82
41140;BME280;26881;48.784;9.192;2022-09-11T16:42:28;98745.13;;;19.91;58.67
41140;BME280;26881;48.784;9.192;2022-09-11T16:47:50;98742.75;;;19.88;59.16
41140;BME280;26881;48.784;9.192;2022-09-11T16:53:12;98746.69;;;19.84;58.85
41140;BME280;26881;48.784;9.192;2022-09-11T16:58:35;98751.00;;;19.85;58.51
41140;BME280;26881;48.784;9.192;2022-09-11T17:03:57;98741.22;;;19.86;57.54
41140;BME280;26881;48.784;9.192;2022-09-11T17:09:19;98735.91;;;19.86;57.53
41140;BME280;26881;48.784;9.192;2022-09-11T17:14:40;98736.91;;;19.85;58.61
41140;BME280;26881;48.784;9.192;2022-09-11T17:20:03;98734.69;;;19.80;59.39
41140;BME280;26881;48.784;9.192;2022-09-11T17:25:25;98739.03;;;19.71;60.25
41140;BME280;26881;48.784;9.192;2022-09-11T17:30:46;98735.25;;;19.64;60.07
41140;BME280;26881;48.784;9.192;2022-09-11T17:36:09;98737.50;;;19.59;60.84
41140;BME280;26881;48.784;9.192;2022-09-11T17:41:32;98746.63;;;19.47;62.51
41140;BME280;26881;48.784;9.192;2022-09-11T17:46:54;98747.22;;;19.31;64.91
41140;BME280;26881;48.784;9.192;2022-09-11T17:52:17;98752.94;;;19.16;64.48
41140;BME280;26881;48.784;9.192;2022-09-11T17:57:41;98768.00;;;19.06;65.28
41140;BME280;26881;48.784;9.192;2022-09-11T18:03:05;98760.34;;;18.93;66.24
41140;BME280;26881;48.784;9.192;2022-09-11T18:08:29;98765.78;;;18.82;67.07
41140;BME280;26881;48.784;9.192;2022-09-11T18:13:53;98767.19;;;18.77;67.91
41140;BME280;26881;48.784;9.192;2022-09-11T18:19:16;98772.84;;;18.72;68.00
41140;BME280;26881;48.784;9.192;2022-09-11T18:24:40;98773.53;;;18.64;68.41
41140;BME280;26881;48.784;9.192;2022-09-11T18:30:02;98783.28;;;18.54;70.65
41140;BME280;26881;48.784;9.192;2022-09-11T18:35:24;98777.56;;;18.49;70.02
41140;BME280;26881;48.784;9.192;2022-09-11T18:40:53;98777.81;;;18.46;69.16
41140;BME280;26881;48.784;9.192;2022-09-11T18:46:15;98774.88;;;18.39;69.76
41140;BME280;26881;48.784;9.192;2022-09-11T18:51:37;98781.09;;;18.28;72.35
41140;BME280;26881;48.784;9.192;2022-09-11T18:56:58;98776.75;;;18.18;70.91
41140;BME280;26881;48.784;9.192;2022-09-11T19:02:21;98781.19;;;18.17;71.35
41140;BME280;26881;48.784;9.192;2022-09-11T19:07:43;98774.34;;;18.05;72.90
41140;BME280;26881;48.784;9.192;2022-09-11T19:13:06;98773.00;;;17.89;73.92
41140;BME280;26881;48.784;9.192;2022-09-11T19:18:27;98777.59;;;17.87;73.02
41140;BME280;26881;48.784;9.192;2022-09-11T19:23:53;98784.13;;;17.83;72.95
41140;BME280;26881;48.784;9.192;2022-09-11T19:29:16;98779.59;;;17.74;73.70
41140;BME280;26881;48.784;9.192;2022-09-11T19:34:40;98783.97;;;17.64;74.14
41140;BME280;26881;48.784;9.192;2022-09-11T19:40:08;98790.63;;;17.58;73.92
41140;BME280;26881;48.784;9.192;2022-09-11T19:45:30;98778.75;;;17.53;74.96
41140;BME280;26881;48.784;9.192;2022-09-11T19:50:52;98787.66;;;17.52;74.73
41140;BME280;26881;48.784;9.192;2022-09-11T19:56:15;98787.66;;;17.31;74.85
41140;BME280;26881;48.784;9.192;2022-09-11T20:01:37;98787.44;;;17.22;75.05
41140;BME280;26881;48.784;9.192;2022-09-11T20:06:59;98789.63;;;17.17;75.34
41140;BME280;26881;48.784;9.192;2022-09-11T20:12:21;98786.25;;;16.94;75.90
41140;BME280;26881;48.784;9.192;2022-09-11T20:17:43;98792.41;;;16.83;76.18
41140;BME280;26881;48.784;9.192;2022-09-11T20:23:08;98792.28;;;16.85;76.95
41140;BME280;26881;48.784;9.192;2022-09-11T20:28:30;98803.56;;;16.76;76.77
41140;BME280;26881;48.784;9.192;2022-09-11T20:33:53;98793.63;;;16.68;76.94
41140;BME280;26881;48.784;9.192;2022-09-11T20:39:15;98793.25;;;16.73;77.00
41140;BME280;26881;48.784;9.192;2022-09-11T20:44:37;98788.34;;;16.79;76.49
41140;BME280;26881;48.784;9.192;2022-09-11T20:49:58;98782.44;;;16.87;76.14
41140;BME280;26881;48.784;9.192;2022-09-11T20:55:21;98784.75;;;16.69;75.74
41140;BME280;26881;48.784;9.192;2022-09-11T21:00:44;98783.94;;;16.57;76.66
41140;BME280;26881;48.784;9.192;2022-09-11T21:06:07;98780.59;;;16.55;76.43
41140;BME280;26881;48.784;9.192;2022-09-11T21:11:29;98779.97;;;16.52;76.26
41140;BME280;26881;48.784;9.192;2022-09-11T21:16:51;98779.50;;;16.58;75.91
41140;BME280;26881;48.784;9.192;2022-09-11T21:22:13;98777.88;;;16.67;75.93
41140;BME280;26881;48.784;9.192;2022-09-11T21:27:35;98783.22;;;16.44;77.52
41140;BME280;26881;48.784;9.192;2022-09-11T21:32:57;98776.16;;;16.44;77.98
41140;BME280;26881;48.784;9.192;2022-09-11T21:38:24;98777.81;;;16.46;77.53
41140;BME280;26881;48.784;9.192;2022-09-11T21:43:46;98773.41;;;16.46;77.60
41140;BME280;26881;48.784;9.192;2022-09-11T21:49:08;98773.03;;;16.39;78.18
41140;BME280;26881;48.784;9.192;2022-09-11T21:54:30;98773.75;;;16.41;77.88
41140;BME280;26881;48.784;9.192;2022-09-11T21:59:53;98765.03;;;16.30;78.00
41140;BME280;26881;48.784;9.192;2022-09-11T22:05:15;98779.41;;;16.26;79.00
41140;BME280;26881;48.784;9.192;2022-09-11T22:10:46;98774.88;;;16.16;78.98
41140;BME280;26881;48.784;9.192;2022-09-11T22:16:10;98779.56;;;16.01;79.58
41140;BME280;26881;48.784;9.192;2022-09-11T22:21:32;98771.28;;;15.84;80.60
41140;BME280;26881;48.784;9.192;2022-09-11T22:26:54;98770.28;;;15.85;80.54
41140;BME280;26881;48.784;9.192;2022-09-11T22:32:16;98767.56;;;15.86;80.38
41140;BME280;26881;48.784;9.192;2022-09-11T22:37:38;98761.66;;;15.83;80.79
41140;BME280;26881;48.784;9.192;2022-09-11T22:42:59;98759.03;;;15.71;82.05
41140;BME280;26881;48.784;9.192;2022-09-11T22:48:21;98763.19;;;15.63;82.99
41140;BME280;26881;48.784;9.192;2022-09-11T22:53:43;98765.19;;;15.59;83.48
41140;BME280;26881;48.784;9.192;2022-09-11T22:59:06;98761.13;;;15.44;83.33
41140;BME280;26881;48.784;9.192;2022-09-11T23:04:27;98761.69;;;15.25;84.23
41140;BME280;26881;48.784;9.192;2022-09-11T23:09:49;98759.81;;;15.49;83.45
41140;BME280;26881;48.784;9.192;2022-09-11T23:15:11;98756.47;;;15.58;81.55
41140;BME280;26881;48.784;9.192;2022-09-11T23:20:33;98755.59;;;15.47;82.45
41140;BME280;26881;48.784;9.192;2022-09-11T23:25:54;98758.94;;;15.37;83.13
41140;BME280;26881;48.784;9.192;2022-09-11T23:31:18;98751.47;;;15.20;84.42
41140;BME280;26881;48.784;9.192;2022-09-11T23:36:42;98750.31;;;15.35;83.78
41140;BME280;26881;48.784;9.192;2022-09-11T23:42:04;98740.41;;;15.15;85.07
41140;BME280;26881;48.784;9.192;2022-09-11T23:47:26;98741.13;;;15.06;85.05
41140;BME280;26881;48.784;9.192;2022-09-11T23:52:47;98744.22;;;15.00;84.75
41140;BME280;26881;48.784;9.192;2022-09-11T23:58:09;98744.66;;;15.17;83.65
